Time,TemperatureF,DewpointF,PressureIn,WindDirection,WindDirectionDegrees,WindSpeedMPH,WindSpeedGustMPH,Humidity,HourlyPrecipIn,Conditions,Clouds,dailyrainin,SoftwareType,DateUTC
2017-02-21 00:03:00,63.1,62.2,29.98,SSE,166,0.0,0.0,97,0.00,,,0.00,meteobridge,2017-02-21 06:03:00,
2017-02-21 00:08:00,63.1,62.2,29.98,SSE,166,0.0,0.0,97,0.00,,,0.00,meteobridge,2017-02-21 06:08:00,
2017-02-21 00:13:00,63.1,62.2,29.97,SSE,166,0.0,0.0,97,0.00,,,0.00,meteobridge,2017-02-21 06:13:00,
2017-02-21 00:18:00,63.3,62.8,29.97,SSE,166,0.0,0.0,98,0.00,,,0.00,meteobridge,2017-02-21 06:18:00,
2017-02-21 00:24:00,63.3,62.8,29.97,SSE,166,0.0,0.0,98,0.00,,,0.00,meteobridge,2017-02-21 06:24:00,
2017-02-21 00:29:00,63.5,63.0,29.97,SSE,166,0.0,0.0,98,0.00,,,0.00,meteobridge,2017-02-21 06:29:00,
2017-02-21 00:34:00,63.5,63.0,29.97,SSE,166,0.0,0.0,98,0.00,,,0.00,meteobridge,2017-02-21 06:34:00,
2017-02-21 00:39:00,63.5,63.0,29.97,SSE,166,0.0,0.0,98,0.00,,,0.00,meteobridge,2017-02-21 06:39:00,
2017-02-21 00:44:00,63.5,63.0,29.97,SSE,166,0.0,0.0,98,0.00,,,0.00,meteobridge,2017-02-21 06:44:00,
2017-02-21 00:49:00,63.5,63.0,29.96,SSE,166,0.0,0.0,98,0.00,,,0.00,meteobridge,2017-02-21 06:49:00,
2017-02-21 00:54:00,63.5,63.0,29.96,SSE,166,0.0,0.0,98,0.00,,,0.00,meteobridge,2017-02-21 06:54:00,
2017-02-21 00:59:00,63.5,63.0,29.96,SSE,166,0.0,0.0,98,0.00,,,0.00,meteobridge,2017-02-21 06:59:00,
2017-02-21 01:04:00,63.5,63.0,29.96,SSE,166,0.0,0.0,98,0.00,,,0.00,meteobridge,2017-02-21 07:04:00,
2017-02-21 01:09:00,63.5,63.0,29.95,SSE,166,0.0,3.0,98,0.00,,,0.00,meteobridge,2017-02-21 07:09:00,
2017-02-21 01:14:00,63.5,63.0,29.95,SSE,166,0.0,0.0,98,0.00,,,0.00,meteobridge,2017-02-21 07:14:00,
2017-02-21 01:19:00,63.5,63.0,29.95,SSE,165,0.0,0.0,98,0.00,,,0.00,meteobridge,2017-02-21 07:19:00,
2017-02-21 01:24:00,63.3,62.8,29.95,SSE,165,0.0,0.0,98,0.00,,,0.00,meteobridge,2017-02-21 07:24:00,
2017-02-21 01:29:00,63.3,62.8,29.96,SSE,165,0.0,0.0,98,0.00,,,0.00,meteobridge,2017-02-21 07:29:00,
2017-02-21 01:34:00,63.1,62.6,29.96,SSE,165,0.0,0.0,98,0.00,,,0.00,meteobridge,2017-02-21 07:34:00,
2017-02-21 01:39:00,63.1,62.6,29.95,SSE,165,0.0,0.0,98,0.00,,,0.00,meteobridge,2017-02-21 07:39:00,
2017-02-21 01:44:00,63.0,62.4,29.95,SSE,165,0.0,0.0,98,0.00,,,0.00,meteobridge,2017-02-21 07:44:00,
2017-02-21 01:49:00,63.0,62.4,29.95,SSE,165,0.0,0.0,98,0.00,,,0.00,meteobridge,2017-02-21 07:49:00,
2017-02-21 01:54:00,63.0,62.4,29.95,SSE,165,0.0,0.0,98,0.00,,,0.00,meteobridge,2017-02-21 07:54:00,
2017-02-21 01:59:00,63.0,62.4,29.95,SSE,165,0.0,0.0,98,0.00,,,0.00,meteobridge,2017-02-21 07:59:00,
2017-02-21 02:04:00,63.1,62.6,29.95,SSE,165,0.0,0.0,98,0.00,,,0.00,meteobridge,2017-02-21 08:04:00,
2017-02-21 02:09:00,63.1,62.6,29.95,SSE,165,0.0,0.0,98,0.00,,,0.00,meteobridge,2017-02-21 08:09:00,
2017-02-21 02:14:00,63.1,62.6,29.96,SSE,165,0.0,0.0,98,0.00,,,0.00,meteobridge,2017-02-21 08:14:00,
2017-02-21 02:19:00,62.4,61.9,29.96,SSE,165,0.0,2.0,98,0.00,,,0.00,meteobridge,2017-02-21 08:19:00,
2017-02-21 02:24:00,62.6,62.1,29.96,SSE,165,0.0,0.0,98,0.00,,,0.00,meteobridge,2017-02-21 08:24:00,
2017-02-21 02:29:00,62.8,62.2,29.96,SSE,165,0.0,0.0,98,0.00,,,0.00,meteobridge,2017-02-21 08:29:00,
2017-02-21 02:34:00,63.0,62.4,29.96,SSE,165,0.0,0.0,98,0.01,,,0.01,meteobridge,2017-02-21 08:34:00,
2017-02-21 02:39:00,63.1,62.6,29.95,SSE,165,0.0,0.0,98,0.01,,,0.01,meteobridge,2017-02-21 08:39:00,
2017-02-21 02:44:00,63.7,63.1,29.95,SSE,165,0.0,0.0,98,0.01,,,0.01,meteobridge,2017-02-21 08:44:00,
2017-02-21 02:49:00,63.9,63.3,29.94,SSE,165,0.0,0.0,98,0.01,,,0.01,meteobridge,2017-02-21 08:49:00,
2017-02-21 02:54:00,63.9,63.3,29.94,SSE,165,0.0,0.0,98,0.01,,,0.01,meteobridge,2017-02-21 08:54:00,
2017-02-21 02:59:00,64.0,63.5,29.94,SSE,165,0.0,0.0,98,0.01,,,0.01,meteobridge,2017-02-21 08:59:00,
2017-02-21 03:00:00,64.0,63.5,29.93,SSE,165,0.0,0.0,98,0.01,,,0.01,meteobridge,2017-02-21 09:00:00,
2017-02-21 03:05:00,64.2,63.7,29.93,SSE,165,0.0,0.0,98,0.01,,,0.01,meteobridge,2017-02-21 09:05:00,
2017-02-21 03:10:00,64.2,63.7,29.93,SSE,165,0.0,0.0,98,0.01,,,0.01,meteobridge,2017-02-21 09:10:00,
2017-02-21 03:15:00,64.2,63.7,29.93,SSE,165,0.0,0.0,98,0.01,,,0.01,meteobridge,2017-02-21 09:15:00,
2017-02-21 03:20:00,64.2,63.7,29.93,SSE,165,0.0,0.0,98,0.02,,,0.02,meteobridge,2017-02-21 09:20:00,
2017-02-21 03:25:00,64.0,63.5,29.93,SSE,165,0.0,0.0,98,0.02,,,0.02,meteobridge,2017-02-21 09:25:00,
2017-02-21 03:30:00,64.0,63.5,29.93,SSE,165,0.0,0.0,98,0.02,,,0.02,meteobridge,2017-02-21 09:30:00,
2017-02-21 03:35:00,63.9,63.3,29.93,SSE,165,0.0,0.0,98,0.01,,,0.02,meteobridge,2017-02-21 09:35:00,
2017-02-21 03:40:00,63.9,63.3,29.92,SSE,165,0.0,0.0,98,0.01,,,0.02,meteobridge,2017-02-21 09:40:00,
2017-02-21 03:45:00,64.0,63.5,29.92,SSE,165,0.0,0.0,98,0.01,,,0.02,meteobridge,2017-02-21 09:45:00,
2017-02-21 03:50:00,64.0,63.5,29.92,SSE,165,0.0,0.0,98,0.01,,,0.02,meteobridge,2017-02-21 09:50:00,
2017-02-21 03:55:00,64.2,63.7,29.92,SSE,165,0.0,0.0,98,0.01,,,0.02,meteobridge,2017-02-21 09:55:00,
2017-02-21 04:00:00,64.2,63.7,29.92,SSE,165,0.0,0.0,98,0.02,,,0.03,meteobridge,2017-02-21 10:00:00,
2017-02-21 04:05:00,64.2,63.7,29.92,SSE,165,0.0,0.0,98,0.02,,,0.03,meteobridge,2017-02-21 10:05:00,
2017-02-21 04:10:00,64.2,63.7,29.92,SSE,165,0.0,0.0,98,0.04,,,0.07,meteobridge,2017-02-21 10:10:00,
2017-02-21 04:16:00,64.2,63.7,29.93,SSE,165,0.0,3.0,98,0.07,,,0.08,meteobridge,2017-02-21 10:16:00,
2017-02-21 04:21:00,64.2,63.7,29.95,SSE,165,2.0,2.0,98,0.07,,,0.10,meteobridge,2017-02-21 10:21:00,
2017-02-21 04:26:00,64.2,63.7,29.95,SSE,165,0.0,2.0,98,0.16,,,0.20,meteobridge,2017-02-21 10:26:00,
2017-02-21 04:31:00,64.0,63.5,29.93,SSE,165,0.0,0.0,98,0.26,,,0.29,meteobridge,2017-02-21 10:31:00,
2017-02-21 04:36:00,64.2,63.7,29.93,SSE,165,0.0,0.0,98,0.29,,,0.31,meteobridge,2017-02-21 10:36:00,
2017-02-21 04:41:00,64.2,63.7,29.93,SSE,165,0.0,0.0,98,0.30,,,0.32,meteobridge,2017-02-21 10:41:00,
2017-02-21 04:46:00,64.2,63.7,29.93,SSE,165,0.0,1.0,98,0.30,,,0.32,meteobridge,2017-02-21 10:46:00,
2017-02-21 04:51:00,64.2,63.7,29.93,SSE,165,0.0,0.0,98,0.32,,,0.34,meteobridge,2017-02-21 10:51:00,
2017-02-21 04:56:00,64.4,63.9,29.93,SSE,165,0.0,2.0,98,0.34,,,0.36,meteobridge,2017-02-21 10:56:00,
2017-02-21 05:01:00,64.6,64.0,29.93,SSE,165,0.0,4.0,98,0.34,,,0.38,meteobridge,2017-02-21 11:01:00,
2017-02-21 05:06:00,64.6,64.0,29.93,SSE,165,0.0,0.0,98,0.35,,,0.38,meteobridge,2017-02-21 11:06:00,
2017-02-21 05:11:00,64.8,64.4,29.92,SSE,165,0.0,0.0,99,0.31,,,0.38,meteobridge,2017-02-21 11:11:00,
2017-02-21 05:16:00,64.6,64.0,29.92,SSE,165,0.0,0.0,98,0.30,,,0.38,meteobridge,2017-02-21 11:16:00,
2017-02-21 05:21:00,64.8,64.2,29.92,SSE,165,0.0,3.0,98,0.28,,,0.38,meteobridge,2017-02-21 11:21:00,
2017-02-21 05:26:00,64.8,64.4,29.91,SSE,165,0.0,5.0,99,0.19,,,0.39,meteobridge,2017-02-21 11:26:00,
2017-02-21 05:31:00,64.9,64.6,29.91,SSE,165,0.0,2.0,99,0.11,,,0.39,meteobridge,2017-02-21 11:31:00,
2017-02-21 05:36:00,65.1,64.8,29.91,SSE,163,0.0,3.0,99,0.08,,,0.39,meteobridge,2017-02-21 11:36:00,
2017-02-21 05:41:00,65.1,64.6,29.94,NW,321,4.9,7.0,98,0.07,,,0.39,meteobridge,2017-02-21 11:41:00,
2017-02-21 05:46:00,64.0,63.5,29.95,WNW,296,4.0,20.0,98,0.22,,,0.55,meteobridge,2017-02-21 11:46:00,
2017-02-21 05:51:00,63.0,62.4,29.95,WNW,290,2.0,4.0,98,0.25,,,0.60,meteobridge,2017-02-21 11:51:00,
2017-02-21 05:56:00,62.4,61.9,29.95,NW,313,0.0,5.0,98,0.28,,,0.65,meteobridge,2017-02-21 11:56:00,
2017-02-21 06:01:00,62.4,61.9,29.95,WNW,296,0.9,7.0,98,0.31,,,0.69,meteobridge,2017-02-21 12:01:00,
2017-02-21 06:06:00,62.2,61.7,29.95,WNW,302,0.0,6.0,98,0.33,,,0.71,meteobridge,2017-02-21 12:06:00,
2017-02-21 06:11:00,62.2,61.7,29.95,WNW,289,0.0,2.0,98,0.35,,,0.74,meteobridge,2017-02-21 12:11:00,
2017-02-21 06:17:00,62.1,61.5,29.95,WNW,295,0.0,3.0,98,0.39,,,0.77,meteobridge,2017-02-21 12:17:00,
2017-02-21 06:22:00,62.1,61.5,29.95,WNW,297,0.0,3.0,98,0.41,,,0.79,meteobridge,2017-02-21 12:22:00,
2017-02-21 06:27:00,61.9,61.3,29.95,WNW,291,0.0,3.0,98,0.41,,,0.80,meteobridge,2017-02-21 12:27:00,
2017-02-21 06:32:00,61.9,61.3,29.95,WNW,292,0.0,0.0,98,0.41,,,0.80,meteobridge,2017-02-21 12:32:00,